• Join FlightAware (Why Join?)
  • Login
  • US Flag 
11:02PM EST


 

Airport Tracker/Info


-or-


 

Live Flight TrackerFlight Track Log ✈ AWI3764 ✈ 30-Jul-2014 ✈ KDCA - KPWM

Flight Track Log - Related Links

Times and Time Zones

All times are in EDT time to prevent confusion due to time zone crossing. See the AWI3764 flight status page for this flight to view local times or setup timezone preferences in your user account.

Time Position Orientation Groundspeed Altitude Reporting Facility
EDT Latitude Longitude Course Direction KTS MPH feet Rate Location/Type
01:16PM 38.8856 -77.0717 38° Northeast 177 204 2,100  Level Washington Center
01:17PM 38.9328 -77.1233 320° Northwest 198 228 4,200 2,400 Climbing Washington Center
01:18PM 38.9883 -77.1806 321° Northwest 233 268 7,000 2,520 Climbing Washington Center
01:19PM 39.0433 -76.4917 63° Northeast  Level FlightAware Approximate
01:19PM 39.0475 -77.1283 34° Northeast 197 227 9,400  Level Washington Center
01:20PM 39.0992 -76.3575 61° Northeast  Level FlightAware Approximate
01:20PM 39.0592 -77.0192 82° East 197 227 11,700  Level Washington Center
01:21PM 39.1433 -76.2234 38° Northeast  Level FlightAware Approximate
01:21PM 39.0708 -76.9044 83° East 283 326 13,700  Level Washington Center
01:22PM 39.0847 -76.7869 81° East 301 346 15,500 1,800 Climbing Washington Center
01:23PM 39.0983 -76.6642 82° East 325 374 17,300 1,560 Climbing Washington Center
01:24PM 39.1139 -76.5414 81° East 339 390 18,700 1,320 Climbing Washington Center
01:25PM 39.1294 -76.4158 81° East 350 403 20,000 1,320 Climbing Washington Center
01:26PM 39.1428 -76.2819 83° East 356 410 21,300 1,260 Climbing Washington Center
01:27PM 39.1622 -76.1511 79° East 363 418 22,600 1,020 Climbing Washington Center
01:28PM 39.1772 -76.0147 82° East 373 429 23,400 420 Climbing Washington Center
01:29PM 39.2006 -75.8756 78° East 379 436 23,500 180 Climbing Washington Center
01:30PM 39.2822 -75.7658 46° Northeast 395 455 23,800 660 Climbing Washington Center
01:31PM 39.3697 -75.6533 45° Northeast 412 474 24,900 900 Climbing Washington Center
01:32PM 39.4531 -75.5431 46° Northeast 419 482 25,700 840 Climbing Washington Center
01:33PM 39.5383 -75.4356 44° Northeast 424 488 26,600 660 Climbing Washington Center
01:34PM 39.6236 -75.3222 46° Northeast 429 494 27,000 180 Climbing Washington Center
01:35PM 39.7108 -75.2003 47° Northeast 435 501 27,000  Level Washington Center
01:36PM 39.7875 -75.0892 48° Northeast 450 518 27,000  Level Washington Center
01:38PM 39.9667 -74.8308 48° Northeast 441 507 27,000  Level New York Center
01:39PM 40.0694 -74.6875 47° Northeast 446 513 27,000  Level New York Center
01:40PM 40.1522 -74.5728 47° Northeast 446 513 27,000  Level New York Center
01:41PM 40.2308 -74.4656 46° Northeast 451 519 27,000  Level New York Center
01:42PM 40.3136 -74.3475 47° Northeast 451 519 27,000  Level New York Center
01:43PM 40.3964 -74.2267 48° Northeast 446 513 27,000  Level New York Center
01:44PM 40.4789 -74.1106 47° Northeast 446 513 27,000  Level New York Center
01:45PM 40.5636 -73.9919 47° Northeast 446 513 27,000  Level New York Center
01:46PM 40.6461 -73.8700 48° Northeast 446 513 27,000  Level New York Center
01:48PM 40.7742 -73.6892 47° Northeast 444 511 27,000  Level Boston Center
01:49PM 40.8569 -73.5686 48° Northeast 444 511 27,000  Level Boston Center
01:50PM 40.9572 -73.4214 48° Northeast 445 512 27,000  Level Boston Center
01:51PM 41.0392 -73.3042 47° Northeast 445 512 27,000  Level Boston Center
01:52PM 41.1214 -73.1828 48° Northeast 445 512 27,000  Level Boston Center
01:53PM 41.1958 -73.0519 53° Northeast 445 512 27,000  Level Boston Center
01:54PM 41.2600 -72.9125 58° Northeast 446 513 27,000  Level Boston Center
01:55PM 41.3311 -72.7617 58° Northeast 446 513 27,000  Level Boston Center
01:56PM 41.3969 -72.6192 58° Northeast 447 514 27,000  Level Boston Center
01:57PM 41.4797 -72.4903 49° Northeast 456 525 27,000  Level Boston Center
01:58PM 41.5714 -72.3517 48° Northeast 455 524 27,000  Level Boston Center
01:59PM 41.6547 -72.2264 48° Northeast 455 524 27,000  Level Boston Center
02:00PM 41.7383 -72.1000 48° Northeast 456 525 27,000  Level Boston Center
02:01PM 41.8208 -71.9728 49° Northeast 456 525 27,000  Level Boston Center
02:02PM 41.9211 -71.8194 49° Northeast 456 525 27,000  Level Boston Center
02:03PM 42.0056 -71.6922 48° Northeast 457 526 27,000  Level Boston Center
02:04PM 42.0883 -71.5642 49° Northeast 457 526 27,000 -480 Level Boston Center
02:05PM 42.1708 -71.4342 49° Northeast 458 527 26,100 -960 Descending Boston Center
02:06PM 42.2567 -71.3039 48° Northeast 462 532 25,100 -1,020 Descending Boston Center
02:07PM 42.3436 -71.1647 50° Northeast 457 526 24,100 -540 Descending Boston Center
02:09PM 42.4267 -71.0375 48° Northeast 453 521 24,000 -60 Descending Boston Center
02:10PM 42.5053 -70.9117 50° Northeast 442 509 24,000 -780 Level Boston Center
02:11PM 42.5944 -70.7708 49° Northeast 442 509 22,500 -1,620 Descending Boston Center
02:12PM 42.6639 -70.6619 49° Northeast 431 496 20,700 -2,100 Descending Boston Center
02:13PM 42.7744 -70.5792 29° Northeast 392 451 18,300 -2,160 Descending Boston Center
02:14PM 42.8764 -70.5161 24° Northeast 377 434 16,300 -1,740 Descending Boston Center
02:15PM 42.9644 -70.4586 26° Northeast 357 411 14,700 -1,740 Descending Boston Center
02:16PM 43.0614 -70.3900 27° Northeast 364 419 12,900 -1,800 Descending Boston Center
02:17PM 43.1450 -70.3150 33° Northeast 360 414 11,100 -1,560 Descending Boston Center
02:18PM 43.2300 -70.3242 356° North 314 361 9,700 -1,560 Descending Boston Center
02:19PM 43.3094 -70.3706 337° Northwest 291 335 7,900 -1,920 Descending Boston Center
02:20PM 43.3772 -70.4131 336° Northwest 270 311 5,800 -2,100 Descending Boston Center
02:21PM 43.4494 -70.4625 334° Northwest 270 311 3,700 -1,860 Descending Boston Center
02:22PM 43.5183 -70.4908 343° North 259 298 2,100 -840 Descending Boston Center
02:23PM 43.5756 -70.4856 North 199 229 2,000 -120 Descending Boston Center
02:24PM 43.6208 -70.4542 27° Northeast 174 200 1,900 -300 Descending Boston Center
02:25PM 43.6489 -70.4061 51° Northeast 163 188 1,400 -720 Descending Boston Center
02:26PM 43.6475 -70.3472 92° East 148 170 500 -600 Descending Boston Center
02:27PM 43.6442 -70.2981 95° East 145 167 200 -300 Descending Boston Center